createdAt,value
2023-11-07T00:00:21.403Z,54.84
2023-11-07T00:03:09.763Z,54.90
2023-11-07T00:05:58.036Z,54.93
2023-11-07T00:08:45.383Z,54.80
2023-11-07T00:11:32.095Z,54.95
2023-11-07T00:14:22.564Z,55.02
2023-11-07T00:17:09.552Z,55.25
2023-11-07T00:19:57.950Z,55.13
2023-11-07T00:22:46.814Z,55.21
2023-11-07T00:25:34.045Z,55.30
2023-11-07T00:28:21.326Z,55.38
2023-11-07T00:31:08.150Z,55.42
2023-11-07T00:33:55.573Z,55.35
2023-11-07T00:36:42.577Z,55.45
2023-11-07T00:39:30.974Z,55.59
2023-11-07T00:42:17.706Z,55.39
2023-11-07T00:45:05.718Z,55.56
2023-11-07T00:47:53.457Z,55.57
2023-11-07T00:50:40.335Z,55.82
2023-11-07T00:53:27.372Z,55.63
2023-11-07T00:56:17.396Z,55.84
2023-11-07T00:59:05.180Z,55.85
2023-11-07T01:01:51.829Z,55.81
2023-11-07T01:04:40.592Z,56.02
2023-11-07T01:07:27.572Z,56.14
2023-11-07T01:10:14.727Z,56.09
2023-11-07T01:13:05.144Z,56.01
2023-11-07T01:15:51.728Z,56.12
2023-11-07T01:18:38.199Z,55.96
2023-11-07T01:21:25.364Z,56.04
2023-11-07T01:24:14.265Z,56.08
2023-11-07T01:27:01.145Z,56.28
2023-11-07T01:29:49.824Z,56.19
2023-11-07T01:32:39.001Z,56.25
2023-11-07T01:35:26.438Z,56.30
2023-11-07T01:38:12.615Z,56.45
2023-11-07T01:40:59.404Z,56.38
2023-11-07T01:43:47.186Z,56.36
2023-11-07T01:46:35.919Z,56.59
2023-11-07T01:49:22.429Z,56.50
2023-11-07T01:52:09.420Z,56.61
2023-11-07T01:54:56.962Z,56.60
2023-11-07T01:57:46.219Z,56.59
2023-11-07T02:00:35.541Z,56.70
2023-11-07T02:03:24.263Z,56.82
2023-11-07T02:06:11.632Z,56.84
2023-11-07T02:08:58.545Z,56.80
2023-11-07T02:11:45.946Z,56.92
2023-11-07T02:14:36.782Z,56.84
2023-11-07T02:17:25.535Z,56.71
2023-11-07T02:20:15.274Z,56.95
2023-11-07T02:23:04.988Z,57.08
2023-11-07T02:25:54.263Z,57.19
2023-11-07T02:28:41.499Z,57.17
2023-11-07T02:31:28.182Z,57.00
2023-11-07T02:34:16.942Z,57.09
2023-11-07T02:37:06.218Z,57.12
2023-11-07T02:39:53.090Z,57.02
2023-11-07T02:42:41.315Z,57.07
2023-11-07T02:45:28.133Z,57.07
2023-11-07T02:48:14.769Z,57.18
2023-11-07T02:51:01.334Z,57.21
2023-11-07T02:53:48.841Z,57.27
2023-11-07T02:56:35.853Z,57.34
2023-11-07T02:59:23.868Z,57.23
2023-11-07T03:02:10.957Z,57.44
2023-11-07T03:04:59.434Z,57.35
2023-11-07T03:07:46.298Z,57.44
2023-11-07T03:10:36.101Z,57.60
2023-11-07T03:13:23.853Z,57.56
2023-11-07T03:16:12.054Z,57.64
2023-11-07T03:18:58.528Z,57.64
2023-11-07T03:21:47.194Z,57.61
2023-11-07T03:24:34.174Z,57.56
2023-11-07T03:27:21.544Z,57.80
2023-11-07T03:30:08.962Z,57.76
2023-11-07T03:32:57.972Z,57.75
2023-11-07T03:35:47.729Z,57.99
2023-11-07T03:38:35.202Z,57.96
2023-11-07T03:41:23.826Z,57.91
2023-11-07T03:44:10.778Z,57.93
2023-11-07T03:46:57.021Z,57.96
2023-11-07T03:49:44.950Z,58.03
2023-11-07T03:52:31.424Z,58.08
2023-11-07T03:55:18.256Z,58.18
2023-11-07T03:58:05.482Z,58.13
2023-11-07T04:00:51.856Z,58.16
2023-11-07T04:03:38.556Z,58.09
2023-11-07T04:06:27.158Z,58.15
2023-11-07T04:09:14.735Z,58.13
2023-11-07T04:12:01.289Z,58.19
2023-11-07T04:14:48.209Z,58.17
2023-11-07T04:17:36.114Z,58.20
2023-11-07T04:20:24.276Z,58.38
2023-11-07T04:23:12.371Z,58.22
2023-11-07T04:26:00.459Z,58.17
2023-11-07T04:28:47.682Z,58.60
2023-11-07T04:31:35.045Z,58.53
2023-11-07T04:34:23.042Z,58.33
2023-11-07T04:37:09.634Z,58.43
2023-11-07T04:39:57.543Z,58.48
2023-11-07T04:42:47.450Z,58.54
2023-11-07T04:45:36.121Z,58.48
2023-11-07T04:48:24.294Z,58.64
2023-11-07T04:51:14.229Z,58.58
2023-11-07T04:54:00.930Z,58.58
2023-11-07T04:56:49.722Z,58.64
2023-11-07T04:59:38.055Z,58.60
2023-11-07T05:02:26.727Z,58.56
2023-11-07T05:05:16.040Z,58.52
2023-11-07T05:08:05.983Z,58.66
2023-11-07T05:10:52.719Z,58.57
2023-11-07T05:13:42.400Z,58.50
2023-11-07T05:16:29.002Z,58.67
2023-11-07T05:19:16.349Z,58.71
2023-11-07T05:22:06.027Z,58.91
2023-11-07T05:24:53.332Z,58.76
2023-11-07T05:27:39.626Z,58.74
2023-11-07T05:30:27.988Z,58.65
2023-11-07T05:33:17.111Z,58.71
2023-11-07T05:36:04.085Z,58.82
2023-11-07T05:38:51.062Z,58.87
2023-11-07T05:41:40.183Z,58.96
2023-11-07T05:44:27.277Z,58.72
2023-11-07T05:47:15.319Z,58.92
2023-11-07T05:50:02.522Z,58.88
2023-11-07T05:52:50.276Z,58.92
2023-11-07T05:55:39.356Z,58.89
2023-11-07T05:58:26.344Z,59.01
2023-11-07T06:01:14.347Z,58.87
2023-11-07T06:04:02.845Z,58.83
2023-11-07T06:06:49.776Z,58.92
2023-11-07T06:09:37.586Z,58.76
2023-11-07T06:12:25.444Z,58.95
2023-11-07T06:15:12.868Z,58.91
2023-11-07T06:18:00.058Z,59.08
2023-11-07T06:20:47.970Z,58.88
2023-11-07T06:23:35.115Z,58.91
2023-11-07T06:26:22.604Z,58.87
2023-11-07T06:29:14.505Z,58.78
2023-11-07T06:32:05.530Z,58.95
2023-11-07T06:34:53.080Z,58.91
2023-11-07T06:37:41.562Z,56.63
2023-11-07T06:40:28.149Z,52.89
2023-11-07T06:43:15.263Z,52.91
2023-11-07T06:46:01.527Z,53.93
2023-11-07T06:48:48.597Z,54.49
2023-11-07T06:51:36.931Z,54.48
2023-11-07T06:54:25.247Z,54.24
2023-11-07T06:57:14.022Z,54.71
2023-11-07T07:00:01.275Z,54.89
2023-11-07T07:02:50.028Z,54.93
2023-11-07T07:05:38.926Z,55.14
2023-11-07T07:08:25.703Z,55.10
2023-11-07T07:11:13.593Z,55.29
2023-11-07T07:14:00.972Z,55.14
2023-11-07T07:16:47.747Z,55.13
2023-11-07T07:19:39.175Z,54.88
2023-11-07T07:22:29.072Z,55.04
2023-11-07T07:25:17.533Z,55.10
2023-11-07T07:28:08.944Z,55.14
2023-11-07T07:31:00.502Z,55.11
2023-11-07T07:33:47.519Z,55.13
2023-11-07T07:36:44.222Z,55.17
2023-11-07T07:39:32.001Z,55.31
2023-11-07T07:42:20.414Z,55.27
2023-11-07T07:45:10.034Z,55.37
2023-11-07T07:47:58.499Z,55.46
2023-11-07T07:50:48.292Z,55.30
2023-11-07T07:53:39.328Z,55.29
2023-11-07T07:56:26.305Z,55.34
2023-11-07T07:59:14.109Z,55.30
2023-11-07T08:02:02.957Z,55.30
2023-11-07T08:04:50.532Z,55.36
2023-11-07T08:07:38.181Z,55.42
2023-11-07T08:10:27.815Z,55.29
2023-11-07T08:13:15.426Z,55.24
2023-11-07T08:16:12.388Z,55.38
2023-11-07T08:19:01.737Z,55.29
2023-11-07T08:21:48.576Z,55.20
2023-11-07T08:24:35.265Z,55.13
2023-11-07T08:27:23.300Z,55.15
2023-11-07T08:30:11.574Z,55.33
2023-11-07T08:33:01.042Z,55.16
2023-11-07T08:35:49.187Z,55.01
2023-11-07T08:38:35.459Z,55.03
2023-11-07T08:41:24.906Z,54.98
2023-11-07T08:44:11.289Z,55.08
2023-11-07T08:46:58.573Z,55.15
2023-11-07T08:49:46.888Z,55.19
2023-11-07T08:52:37.254Z,55.04
2023-11-07T08:55:26.863Z,54.88
2023-11-07T08:58:13.958Z,54.59
2023-11-07T09:01:02.466Z,54.47
2023-11-07T09:03:51.592Z,54.55
2023-11-07T09:06:41.291Z,54.40
2023-11-07T09:09:30.794Z,54.13
2023-11-07T09:12:17.614Z,54.19
2023-11-07T09:15:06.894Z,54.13
2023-11-07T09:17:54.170Z,54.12
2023-11-07T09:20:41.794Z,54.13
2023-11-07T09:23:30.822Z,54.27
2023-11-07T09:26:21.428Z,54.53
2023-11-07T09:29:09.480Z,54.66
2023-11-07T09:31:57.065Z,54.90
2023-11-07T09:34:43.752Z,54.82
2023-11-07T09:37:30.592Z,54.86
2023-11-07T09:40:23.536Z,54.83
2023-11-07T09:43:17.390Z,54.77
2023-11-07T09:46:04.882Z,54.91
2023-11-07T09:48:52.688Z,54.81
2023-11-07T09:51:41.287Z,54.77
2023-11-07T09:54:31.301Z,54.77
2023-11-07T09:57:19.404Z,54.92
2023-11-07T10:00:10.868Z,54.74
2023-11-07T10:02:59.590Z,54.71
2023-11-07T10:05:46.939Z,54.72
2023-11-07T10:08:33.800Z,54.68
2023-11-07T10:11:20.776Z,54.72
2023-11-07T10:14:10.446Z,54.84
2023-11-07T10:16:59.320Z,54.76
2023-11-07T10:19:45.684Z,54.58
2023-11-07T10:22:32.543Z,54.49
2023-11-07T10:25:28.853Z,54.52
2023-11-07T10:28:19.275Z,54.21
2023-11-07T10:31:19.035Z,54.09
2023-11-07T10:34:15.293Z,54.00
2023-11-07T10:37:02.785Z,54.21
2023-11-07T10:40:00.234Z,54.21
2023-11-07T10:42:49.148Z,54.22
2023-11-07T10:45:36.251Z,54.24
2023-11-07T10:48:24.369Z,54.13
2023-11-07T10:51:13.870Z,54.11
2023-11-07T10:54:00.986Z,53.97
2023-11-07T10:56:48.406Z,54.05
2023-11-07T10:59:36.458Z,54.05
2023-11-07T11:02:23.772Z,54.16
2023-11-07T11:05:15.415Z,54.20
2023-11-07T11:08:05.618Z,54.23
2023-11-07T11:10:53.884Z,53.98
2023-11-07T11:13:43.311Z,54.20
2023-11-07T11:16:30.648Z,54.32
2023-11-07T11:19:26.354Z,54.44
2023-11-07T11:22:18.397Z,54.51
2023-11-07T11:25:15.709Z,54.54
2023-11-07T11:28:03.303Z,54.62
2023-11-07T11:30:56.318Z,54.50
2023-11-07T11:33:46.342Z,54.48
2023-11-07T11:36:38.506Z,54.76
2023-11-07T11:39:44.102Z,54.74
2023-11-07T11:42:54.726Z,54.79
2023-11-07T11:45:46.833Z,54.76
2023-11-07T11:48:53.747Z,54.70
2023-11-07T11:51:41.894Z,54.67
2023-11-07T11:54:46.992Z,54.78
2023-11-07T11:57:35.448Z,54.44
2023-11-07T12:00:22.527Z,54.42
2023-11-07T12:03:17.242Z,54.69
2023-11-07T12:06:07.606Z,54.55
2023-11-07T12:08:54.315Z,54.67
2023-11-07T12:11:45.848Z,54.52
2023-11-07T12:14:34.482Z,54.42
2023-11-07T12:17:22.766Z,54.26
2023-11-07T12:20:12.846Z,54.39
2023-11-07T12:22:59.817Z,54.21
2023-11-07T12:25:53.405Z,54.01
2023-11-07T12:28:46.685Z,53.90
2023-11-07T12:31:40.017Z,53.74
2023-11-07T12:34:31.554Z,53.78
2023-11-07T12:37:18.724Z,53.82
2023-11-07T12:40:05.972Z,53.73
2023-11-07T12:42:54.041Z,53.70
2023-11-07T12:45:41.583Z,53.63
2023-11-07T12:48:30.028Z,53.71
2023-11-07T12:51:22.571Z,53.85
2023-11-07T12:54:09.233Z,53.89
2023-11-07T12:56:56.103Z,53.90
2023-11-07T12:59:58.789Z,53.88
2023-11-07T13:02:45.908Z,53.70
2023-11-07T13:05:34.382Z,53.96
2023-11-07T13:08:27.291Z,54.23
2023-11-07T13:11:15.781Z,54.23
2023-11-07T13:14:03.941Z,54.42
2023-11-07T13:16:52.344Z,54.36
2023-11-07T13:19:40.514Z,54.54
2023-11-07T13:22:29.383Z,54.68
2023-11-07T13:25:16.924Z,54.70
2023-11-07T13:28:05.546Z,54.71
2023-11-07T13:30:53.807Z,54.57
2023-11-07T13:33:44.567Z,54.56
2023-11-07T13:36:31.541Z,54.69
2023-11-07T13:39:24.765Z,54.64
2023-11-07T13:42:11.954Z,54.69
2023-11-07T13:44:58.591Z,54.52
2023-11-07T13:47:45.657Z,54.50
2023-11-07T13:50:33.333Z,54.71
2023-11-07T13:53:20.367Z,54.54
2023-11-07T13:56:15.538Z,54.88
2023-11-07T13:59:05.341Z,54.56
2023-11-07T14:01:52.958Z,54.71
2023-11-07T14:04:39.377Z,54.65
2023-11-07T14:07:27.120Z,54.43
2023-11-07T14:10:14.405Z,54.42
2023-11-07T14:13:02.796Z,54.51
2023-11-07T14:15:51.516Z,54.38
2023-11-07T14:18:39.452Z,54.32
2023-11-07T14:21:27.723Z,54.16
2023-11-07T14:24:14.224Z,54.22
2023-11-07T14:27:02.418Z,54.05
2023-11-07T14:30:08.418Z,54.04
2023-11-07T14:32:59.076Z,54.33
2023-11-07T14:35:46.641Z,54.09
2023-11-07T14:38:35.720Z,54.19
2023-11-07T14:41:24.958Z,53.98
2023-11-07T14:44:12.000Z,53.98
2023-11-07T14:46:59.624Z,54.04
2023-11-07T14:49:47.533Z,54.18
2023-11-07T14:52:34.956Z,53.96
2023-11-07T14:55:21.852Z,54.19
2023-11-07T14:58:10.634Z,54.30
2023-11-07T15:00:58.932Z,54.43
2023-11-07T15:03:48.532Z,54.30
2023-11-07T15:06:35.514Z,54.39
2023-11-07T15:09:22.951Z,54.58
2023-11-07T15:12:09.901Z,54.53
2023-11-07T15:14:57.133Z,54.45
2023-11-07T15:17:45.459Z,54.64
2023-11-07T15:20:33.603Z,54.76
2023-11-07T15:23:22.009Z,54.70
2023-11-07T15:26:09.677Z,54.69
2023-11-07T15:28:59.088Z,54.72
2023-11-07T15:31:45.835Z,54.57
2023-11-07T15:34:33.712Z,54.59
2023-11-07T15:37:21.693Z,54.47
2023-11-07T15:40:13.226Z,54.75
2023-11-07T15:43:00.136Z,54.66
2023-11-07T15:45:48.201Z,54.69
2023-11-07T15:48:35.404Z,54.44
2023-11-07T15:51:22.255Z,54.45
2023-11-07T15:54:10.909Z,54.35
2023-11-07T15:56:57.948Z,54.25
2023-11-07T15:59:46.809Z,54.45
2023-11-07T16:02:34.750Z,54.51
2023-11-07T16:05:27.801Z,54.32
2023-11-07T16:08:16.353Z,54.46
2023-11-07T16:11:05.407Z,54.12
2023-11-07T16:13:51.719Z,54.33
2023-11-07T16:16:39.602Z,54.31
2023-11-07T16:19:29.851Z,54.23
2023-11-07T16:22:18.623Z,54.09
2023-11-07T16:25:05.554Z,53.95
2023-11-07T16:27:54.514Z,54.11
2023-11-07T16:30:41.376Z,54.07
2023-11-07T16:33:27.750Z,54.19
2023-11-07T16:36:14.977Z,54.12
2023-11-07T16:39:01.731Z,54.11
2023-11-07T16:41:49.661Z,54.18
2023-11-07T16:44:40.870Z,54.00
2023-11-07T16:47:29.637Z,54.21
2023-11-07T16:50:16.518Z,54.35
2023-11-07T16:53:03.257Z,54.35
2023-11-07T16:55:50.243Z,54.20
2023-11-07T16:58:37.763Z,54.30
2023-11-07T17:01:25.686Z,54.37
2023-11-07T17:04:12.772Z,54.24
2023-11-07T17:07:00.044Z,54.24
2023-11-07T17:09:46.684Z,54.33
2023-11-07T17:12:34.398Z,54.21
2023-11-07T17:15:22.117Z,54.12
2023-11-07T17:18:11.191Z,54.34
2023-11-07T17:20:57.733Z,54.25
2023-11-07T17:23:44.660Z,54.21
2023-11-07T17:26:33.801Z,54.29
2023-11-07T17:29:22.657Z,54.40
2023-11-07T17:32:10.714Z,54.28
2023-11-07T17:35:04.479Z,54.31
2023-11-07T17:37:51.231Z,54.24
2023-11-07T17:40:38.632Z,54.29
2023-11-07T17:43:26.022Z,54.42
2023-11-07T17:46:12.593Z,54.37
2023-11-07T17:48:59.258Z,54.24
2023-11-07T17:51:47.687Z,54.42
2023-11-07T17:54:36.471Z,54.30
2023-11-07T17:57:22.808Z,54.31
2023-11-07T18:00:11.084Z,54.29
2023-11-07T18:03:01.871Z,54.35
2023-11-07T18:05:48.472Z,54.53
2023-11-07T18:08:36.625Z,54.47
2023-11-07T18:11:25.084Z,54.35
2023-11-07T18:14:12.911Z,54.31
2023-11-07T18:17:04.645Z,54.41
2023-11-07T18:19:51.254Z,54.26
2023-11-07T18:22:39.705Z,54.46
2023-11-07T18:25:28.210Z,54.18
2023-11-07T18:28:16.780Z,54.17
2023-11-07T18:31:03.755Z,54.54
2023-11-07T18:33:51.287Z,54.85
2023-11-07T18:36:39.623Z,54.64
2023-11-07T18:39:26.169Z,54.50
2023-11-07T18:42:15.896Z,54.73
2023-11-07T18:45:11.339Z,54.44
2023-11-07T18:47:59.414Z,54.49
2023-11-07T18:50:49.488Z,54.70
2023-11-07T18:53:43.547Z,54.79
2023-11-07T18:56:34.690Z,54.66
2023-11-07T18:59:31.843Z,54.63
2023-11-07T19:02:25.268Z,54.66
2023-11-07T19:05:12.928Z,54.58
2023-11-07T19:08:00.526Z,54.44
2023-11-07T19:10:49.012Z,54.36
2023-11-07T19:13:35.810Z,54.61
2023-11-07T19:16:23.943Z,54.55
2023-11-07T19:19:11.159Z,54.71
2023-11-07T19:21:59.789Z,54.83
2023-11-07T19:24:46.393Z,54.68
2023-11-07T19:27:36.132Z,54.82
2023-11-07T19:30:24.029Z,54.76
2023-11-07T19:33:13.250Z,54.74
2023-11-07T19:36:02.453Z,54.77
2023-11-07T19:38:51.040Z,54.99
2023-11-07T19:41:38.895Z,54.84
2023-11-07T19:44:27.264Z,54.93
2023-11-07T19:47:16.989Z,54.96
2023-11-07T19:50:08.429Z,54.89
2023-11-07T19:53:02.529Z,54.67
2023-11-07T19:55:57.282Z,54.91
2023-11-07T19:58:57.875Z,54.76
2023-11-07T20:01:47.932Z,54.91
2023-11-07T20:04:36.150Z,54.75
2023-11-07T20:07:25.053Z,54.74
2023-11-07T20:10:12.570Z,54.80
2023-11-07T20:13:01.889Z,54.99
2023-11-07T20:15:49.610Z,55.08
2023-11-07T20:18:36.620Z,54.93
2023-11-07T20:21:26.313Z,55.11
2023-11-07T20:24:14.751Z,55.32
2023-11-07T20:27:01.912Z,55.21
2023-11-07T20:29:48.844Z,55.29
2023-11-07T20:32:37.372Z,55.22
2023-11-07T20:35:25.165Z,55.21
2023-11-07T20:38:16.339Z,55.20
2023-11-07T20:41:08.693Z,55.34
2023-11-07T20:43:58.016Z,55.31
2023-11-07T20:46:46.245Z,55.40
2023-11-07T20:49:43.997Z,55.27
2023-11-07T20:52:34.465Z,55.33
2023-11-07T20:55:27.589Z,53.99
2023-11-07T20:58:16.229Z,52.50
2023-11-07T21:01:03.809Z,52.49
2023-11-07T21:03:51.425Z,53.62
2023-11-07T21:06:38.484Z,51.22
2023-11-07T21:09:25.408Z,54.80
2023-11-07T21:12:13.776Z,56.30
2023-11-07T21:15:02.755Z,58.31
2023-11-07T21:17:49.530Z,57.13
2023-11-07T21:20:39.239Z,57.94
2023-11-07T21:23:26.379Z,58.40
2023-11-07T21:26:14.494Z,58.97
2023-11-07T21:29:01.860Z,59.21
2023-11-07T21:31:53.403Z,56.78
2023-11-07T21:34:43.677Z,55.16
2023-11-07T21:37:30.212Z,54.97
2023-11-07T21:40:17.375Z,55.13
2023-11-07T21:43:03.841Z,54.66
2023-11-07T21:45:52.755Z,54.47
2023-11-07T21:48:40.976Z,54.48
2023-11-07T21:51:28.088Z,54.54
2023-11-07T21:54:16.634Z,54.45
2023-11-07T21:57:05.850Z,54.63
2023-11-07T21:59:53.559Z,54.52
2023-11-07T22:02:40.262Z,54.48
2023-11-07T22:05:29.378Z,54.42
2023-11-07T22:08:16.530Z,54.50
2023-11-07T22:11:03.167Z,54.51
2023-11-07T22:13:50.446Z,54.63
2023-11-07T22:16:37.832Z,54.44
2023-11-07T22:19:25.766Z,54.45
2023-11-07T22:22:15.194Z,54.58
2023-11-07T22:25:02.398Z,54.59
2023-11-07T22:27:50.607Z,54.63
2023-11-07T22:30:37.678Z,54.34
2023-11-07T22:33:25.604Z,54.25
2023-11-07T22:36:12.402Z,54.30
2023-11-07T22:39:00.466Z,54.32
2023-11-07T22:41:51.479Z,54.14
2023-11-07T22:44:38.539Z,54.32
2023-11-07T22:47:25.387Z,54.34
2023-11-07T22:50:12.410Z,54.29
2023-11-07T22:53:01.535Z,54.33
2023-11-07T22:55:49.653Z,54.36
2023-11-07T22:58:38.529Z,54.32
2023-11-07T23:01:26.182Z,53.96
2023-11-07T23:04:13.759Z,54.79
2023-11-07T23:07:02.410Z,54.59
2023-11-07T23:09:57.245Z,54.09
2023-11-07T23:12:46.793Z,54.19
2023-11-07T23:15:34.242Z,54.02
2023-11-07T23:18:22.654Z,54.11
2023-11-07T23:21:10.154Z,54.14
2023-11-07T23:23:58.047Z,54.23
2023-11-07T23:26:48.813Z,54.54
2023-11-07T23:29:37.675Z,54.30
2023-11-07T23:32:24.151Z,54.42
2023-11-07T23:35:12.513Z,54.42
2023-11-07T23:37:59.338Z,54.41
2023-11-07T23:40:46.795Z,54.48
2023-11-07T23:43:34.519Z,54.90
2023-11-07T23:46:25.397Z,55.21
2023-11-07T23:49:12.137Z,55.77
2023-11-07T23:51:59.433Z,56.38
2023-11-07T23:54:46.851Z,56.21
2023-11-07T23:57:35.138Z,56.46
